sensor_id;sensor_type;location;lat;lon;timestamp;temperature;humidity
54680;DHT22;40578;53.178;5.846;2022-09-17T00:00:46;11.30;99.90
54680;DHT22;40578;53.178;5.846;2022-09-17T00:03:12;11.40;99.90
54680;DHT22;40578;53.178;5.846;2022-09-17T00:05:38;11.40;91.30
54680;DHT22;40578;53.178;5.846;2022-09-17T00:08:08;11.50;1.00
54680;DHT22;40578;53.178;5.846;2022-09-17T00:10:40;11.50;98.20
54680;DHT22;40578;53.178;5.846;2022-09-17T00:13:06;11.50;95.60
54680;DHT22;40578;53.178;5.846;2022-09-17T00:15:42;11.60;1.00
54680;DHT22;40578;53.178;5.846;2022-09-17T00:18:09;11.70;1.00
54680;DHT22;40578;53.178;5.846;2022-09-17T00:20:44;11.70;75.80
54680;DHT22;40578;53.178;5.846;2022-09-17T00:23:10;11.80;99.90
54680;DHT22;40578;53.178;5.846;2022-09-17T00:25:38;11.70;99.90
54680;DHT22;40578;53.178;5.846;2022-09-17T00:28:05;11.70;99.90
54680;DHT22;40578;53.178;5.846;2022-09-17T00:30:30;11.60;1.00
54680;DHT22;40578;53.178;5.846;2022-09-17T00:32:56;11.70;99.90
54680;DHT22;40578;53.178;5.846;2022-09-17T00:35:23;11.60;99.90
54680;DHT22;40578;53.178;5.846;2022-09-17T00:37:49;11.70;99.90
54680;DHT22;40578;53.178;5.846;2022-09-17T00:40:15;11.60;1.00
54680;DHT22;40578;53.178;5.846;2022-09-17T00:42:40;11.60;99.90
54680;DHT22;40578;53.178;5.846;2022-09-17T00:45:07;11.40;1.00
54680;DHT22;40578;53.178;5.846;2022-09-17T00:47:39;11.40;99.90
54680;DHT22;40578;53.178;5.846;2022-09-17T00:50:15;11.80;99.90
54680;DHT22;40578;53.178;5.846;2022-09-17T00:52:45;11.20;99.90
54680;DHT22;40578;53.178;5.846;2022-09-17T00:55:20;11.10;99.90
54680;DHT22;40578;53.178;5.846;2022-09-17T00:57:48;11.10;99.90
54680;DHT22;40578;53.178;5.846;2022-09-17T01:00:15;11.00;99.90
54680;DHT22;40578;53.178;5.846;2022-09-17T01:02:42;11.00;99.90
54680;DHT22;40578;53.178;5.846;2022-09-17T01:05:08;10.90;1.00
54680;DHT22;40578;53.178;5.846;2022-09-17T01:07:40;10.80;1.00
54680;DHT22;40578;53.178;5.846;2022-09-17T01:12:57;10.90;1.00
54680;DHT22;40578;53.178;5.846;2022-09-17T01:15:48;10.90;99.90
54680;DHT22;40578;53.178;5.846;2022-09-17T01:26:59;11.20;99.90
54680;DHT22;40578;53.178;5.846;2022-09-17T01:32:46;11.10;99.90
54680;DHT22;40578;53.178;5.846;2022-09-17T01:38:48;11.10;99.90
54680;DHT22;40578;53.178;5.846;2022-09-17T01:41:45;11.30;99.90
54680;DHT22;40578;53.178;5.846;2022-09-17T01:44:29;11.30;99.90
54680;DHT22;40578;53.178;5.846;2022-09-17T01:47:14;11.10;99.90
54680;DHT22;40578;53.178;5.846;2022-09-17T01:49:42;11.10;99.90
54680;DHT22;40578;53.178;5.846;2022-09-17T01:52:10;11.20;99.90
54680;DHT22;40578;53.178;5.846;2022-09-17T01:54:44;11.20;99.90
54680;DHT22;40578;53.178;5.846;2022-09-17T01:59:56;11.20;99.90
54680;DHT22;40578;53.178;5.846;2022-09-17T02:02:34;11.30;99.90
54680;DHT22;40578;53.178;5.846;2022-09-17T02:05:28;11.30;99.90
54680;DHT22;40578;53.178;5.846;2022-09-17T02:07:58;11.20;1.00
54680;DHT22;40578;53.178;5.846;2022-09-17T02:10:31;11.10;1.00
54680;DHT22;40578;53.178;5.846;2022-09-17T02:13:07;11.00;3.80
54680;DHT22;40578;53.178;5.846;2022-09-17T02:15:37;11.20;78.60
54680;DHT22;40578;53.178;5.846;2022-09-17T02:18:49;10.90;35.40
54680;DHT22;40578;53.178;5.846;2022-09-17T02:21:14;10.80;92.60
54680;DHT22;40578;53.178;5.846;2022-09-17T02:23:56;10.90;94.20
54680;DHT22;40578;53.178;5.846;2022-09-17T02:26:23;10.90;99.90
54680;DHT22;40578;53.178;5.846;2022-09-17T02:28:56;10.80;99.90
54680;DHT22;40578;53.178;5.846;2022-09-17T02:31:24;10.80;99.90
54680;DHT22;40578;53.178;5.846;2022-09-17T02:33:52;11.00;1.00
54680;DHT22;40578;53.178;5.846;2022-09-17T02:36:19;11.00;99.90
54680;DHT22;40578;53.178;5.846;2022-09-17T02:38:45;11.00;99.90
54680;DHT22;40578;53.178;5.846;2022-09-17T02:41:21;11.00;99.90
54680;DHT22;40578;53.178;5.846;2022-09-17T02:55:10;10.80;1.00
54680;DHT22;40578;53.178;5.846;2022-09-17T02:57:57;10.90;99.90
54680;DHT22;40578;53.178;5.846;2022-09-17T03:00:24;10.90;88.20
54680;DHT22;40578;53.178;5.846;2022-09-17T03:03:07;10.90;1.00
54680;DHT22;40578;53.178;5.846;2022-09-17T03:05:35;10.90;99.90
54680;DHT22;40578;53.178;5.846;2022-09-17T03:08:02;10.90;99.90
54680;DHT22;40578;53.178;5.846;2022-09-17T03:10:27;10.90;99.90
54680;DHT22;40578;53.178;5.846;2022-09-17T03:12:55;11.20;99.90
54680;DHT22;40578;53.178;5.846;2022-09-17T03:15:20;10.80;99.90
54680;DHT22;40578;53.178;5.846;2022-09-17T03:17:46;10.80;99.90
54680;DHT22;40578;53.178;5.846;2022-09-17T03:20:12;10.80;1.00
54680;DHT22;40578;53.178;5.846;2022-09-17T03:22:41;10.80;41.00
54680;DHT22;40578;53.178;5.846;2022-09-17T03:25:07;10.80;32.70
54680;DHT22;40578;53.178;5.846;2022-09-17T03:27:33;10.80;55.80
54680;DHT22;40578;53.178;5.846;2022-09-17T03:29:59;10.90;1.00
54680;DHT22;40578;53.178;5.846;2022-09-17T03:32:25;10.80;32.20
54680;DHT22;40578;53.178;5.846;2022-09-17T03:34:50;10.90;87.90
54680;DHT22;40578;53.178;5.846;2022-09-17T03:37:16;10.80;54.80
54680;DHT22;40578;53.178;5.846;2022-09-17T03:39:42;10.80;99.90
54680;DHT22;40578;53.178;5.846;2022-09-17T03:42:07;10.80;99.90
54680;DHT22;40578;53.178;5.846;2022-09-17T03:44:33;10.80;99.90
54680;DHT22;40578;53.178;5.846;2022-09-17T03:46:59;10.70;99.90
54680;DHT22;40578;53.178;5.846;2022-09-17T03:49:25;10.70;99.90
54680;DHT22;40578;53.178;5.846;2022-09-17T03:51:51;10.70;99.90
54680;DHT22;40578;53.178;5.846;2022-09-17T03:54:16;10.60;99.90
54680;DHT22;40578;53.178;5.846;2022-09-17T03:56:42;10.70;99.90
54680;DHT22;40578;53.178;5.846;2022-09-17T03:59:08;10.80;99.90
54680;DHT22;40578;53.178;5.846;2022-09-17T04:01:33;10.80;99.90
54680;DHT22;40578;53.178;5.846;2022-09-17T04:04:01;10.80;1.00
54680;DHT22;40578;53.178;5.846;2022-09-17T04:06:27;10.50;1.00
54680;DHT22;40578;53.178;5.846;2022-09-17T04:08:52;10.10;1.00
54680;DHT22;40578;53.178;5.846;2022-09-17T04:11:18;9.80;27.20
54680;DHT22;40578;53.178;5.846;2022-09-17T04:13:44;9.60;90.70
54680;DHT22;40578;53.178;5.846;2022-09-17T04:16:09;9.30;99.90
54680;DHT22;40578;53.178;5.846;2022-09-17T04:18:36;9.10;99.90
54680;DHT22;40578;53.178;5.846;2022-09-17T04:21:01;9.10;27.40
54680;DHT22;40578;53.178;5.846;2022-09-17T04:23:28;9.00;93.60
54680;DHT22;40578;53.178;5.846;2022-09-17T04:25:53;8.90;99.90
54680;DHT22;40578;53.178;5.846;2022-09-17T04:28:19;8.80;99.90
54680;DHT22;40578;53.178;5.846;2022-09-17T04:30:46;8.80;99.90
54680;DHT22;40578;53.178;5.846;2022-09-17T04:33:12;8.80;99.90
54680;DHT22;40578;53.178;5.846;2022-09-17T04:35:37;8.70;99.90
54680;DHT22;40578;53.178;5.846;2022-09-17T04:38:03;8.70;99.90
54680;DHT22;40578;53.178;5.846;2022-09-17T04:40:29;8.60;99.90
54680;DHT22;40578;53.178;5.846;2022-09-17T04:42:56;8.90;99.90
54680;DHT22;40578;53.178;5.846;2022-09-17T04:45:24;9.00;99.90
54680;DHT22;40578;53.178;5.846;2022-09-17T04:47:50;8.80;99.90
54680;DHT22;40578;53.178;5.846;2022-09-17T04:50:19;8.90;99.90
54680;DHT22;40578;53.178;5.846;2022-09-17T04:52:45;9.00;99.90
54680;DHT22;40578;53.178;5.846;2022-09-17T04:55:12;9.10;99.90
54680;DHT22;40578;53.178;5.846;2022-09-17T04:57:38;9.40;99.90
54680;DHT22;40578;53.178;5.846;2022-09-17T05:00:05;9.30;99.90
54680;DHT22;40578;53.178;5.846;2022-09-17T05:02:34;9.40;99.90
54680;DHT22;40578;53.178;5.846;2022-09-17T05:05:00;9.50;99.90
54680;DHT22;40578;53.178;5.846;2022-09-17T05:07:26;9.40;1.00
54680;DHT22;40578;53.178;5.846;2022-09-17T05:09:51;9.20;1.00
54680;DHT22;40578;53.178;5.846;2022-09-17T05:12:18;9.10;99.90
54680;DHT22;40578;53.178;5.846;2022-09-17T05:14:44;9.00;99.90
54680;DHT22;40578;53.178;5.846;2022-09-17T05:17:10;9.00;99.90
54680;DHT22;40578;53.178;5.846;2022-09-17T05:19:35;9.00;99.90
54680;DHT22;40578;53.178;5.846;2022-09-17T05:22:01;9.00;99.90
54680;DHT22;40578;53.178;5.846;2022-09-17T05:24:27;9.10;99.90
54680;DHT22;40578;53.178;5.846;2022-09-17T05:26:53;9.20;99.90
54680;DHT22;40578;53.178;5.846;2022-09-17T05:29:19;9.20;99.90
54680;DHT22;40578;53.178;5.846;2022-09-17T05:31:44;9.40;99.90
54680;DHT22;40578;53.178;5.846;2022-09-17T05:34:10;9.40;99.90
54680;DHT22;40578;53.178;5.846;2022-09-17T05:36:35;9.60;99.90
54680;DHT22;40578;53.178;5.846;2022-09-17T05:39:01;9.50;99.90
54680;DHT22;40578;53.178;5.846;2022-09-17T05:41:27;9.60;99.90
54680;DHT22;40578;53.178;5.846;2022-09-17T05:43:52;9.70;99.90
54680;DHT22;40578;53.178;5.846;2022-09-17T05:46:18;9.60;99.90
54680;DHT22;40578;53.178;5.846;2022-09-17T05:48:44;9.60;99.90
54680;DHT22;40578;53.178;5.846;2022-09-17T05:51:09;9.40;99.90
54680;DHT22;40578;53.178;5.846;2022-09-17T05:53:36;9.40;99.90
54680;DHT22;40578;53.178;5.846;2022-09-17T05:56:02;9.30;99.90
54680;DHT22;40578;53.178;5.846;2022-09-17T05:58:28;9.30;99.90
54680;DHT22;40578;53.178;5.846;2022-09-17T06:00:54;9.30;99.90
54680;DHT22;40578;53.178;5.846;2022-09-17T06:03:20;9.30;99.90
54680;DHT22;40578;53.178;5.846;2022-09-17T06:05:55;9.30;99.90
54680;DHT22;40578;53.178;5.846;2022-09-17T06:08:23;9.40;99.90
54680;DHT22;40578;53.178;5.846;2022-09-17T06:10:49;9.50;99.90
54680;DHT22;40578;53.178;5.846;2022-09-17T06:13:19;9.50;99.90
54680;DHT22;40578;53.178;5.846;2022-09-17T06:15:50;9.50;99.90
54680;DHT22;40578;53.178;5.846;2022-09-17T06:18:16;9.40;99.90
54680;DHT22;40578;53.178;5.846;2022-09-17T06:21:02;9.40;99.90
54680;DHT22;40578;53.178;5.846;2022-09-17T06:23:32;9.50;99.90
54680;DHT22;40578;53.178;5.846;2022-09-17T06:26:02;9.40;99.90
54680;DHT22;40578;53.178;5.846;2022-09-17T06:28:28;9.60;99.90
54680;DHT22;40578;53.178;5.846;2022-09-17T06:30:54;9.50;99.90
54680;DHT22;40578;53.178;5.846;2022-09-17T06:33:22;9.50;99.90
54680;DHT22;40578;53.178;5.846;2022-09-17T06:35:48;9.70;99.90
54680;DHT22;40578;53.178;5.846;2022-09-17T06:38:14;9.70;99.90
54680;DHT22;40578;53.178;5.846;2022-09-17T06:40:39;10.20;99.90
54680;DHT22;40578;53.178;5.846;2022-09-17T06:43:05;9.90;99.90
54680;DHT22;40578;53.178;5.846;2022-09-17T06:45:31;10.10;99.90
54680;DHT22;40578;53.178;5.846;2022-09-17T06:47:57;10.10;99.90
54680;DHT22;40578;53.178;5.846;2022-09-17T06:50:22;10.10;99.90
54680;DHT22;40578;53.178;5.846;2022-09-17T06:52:53;10.10;99.90
54680;DHT22;40578;53.178;5.846;2022-09-17T06:55:19;10.10;99.90
54680;DHT22;40578;53.178;5.846;2022-09-17T06:57:45;10.10;99.90
54680;DHT22;40578;53.178;5.846;2022-09-17T07:00:12;10.30;99.90
54680;DHT22;40578;53.178;5.846;2022-09-17T07:02:38;10.40;99.90
54680;DHT22;40578;53.178;5.846;2022-09-17T07:05:04;10.10;99.90
54680;DHT22;40578;53.178;5.846;2022-09-17T07:07:30;10.00;99.90
54680;DHT22;40578;53.178;5.846;2022-09-17T07:09:56;10.00;99.90
54680;DHT22;40578;53.178;5.846;2022-09-17T07:12:22;9.90;99.90
54680;DHT22;40578;53.178;5.846;2022-09-17T07:14:47;9.80;99.90
54680;DHT22;40578;53.178;5.846;2022-09-17T07:17:13;9.70;99.90
54680;DHT22;40578;53.178;5.846;2022-09-17T07:19:39;9.70;99.90
54680;DHT22;40578;53.178;5.846;2022-09-17T07:22:05;9.80;99.90
54680;DHT22;40578;53.178;5.846;2022-09-17T07:24:32;9.80;99.90
54680;DHT22;40578;53.178;5.846;2022-09-17T07:26:57;9.70;99.90
54680;DHT22;40578;53.178;5.846;2022-09-17T07:29:23;9.60;99.90
54680;DHT22;40578;53.178;5.846;2022-09-17T07:31:52;9.70;99.90
54680;DHT22;40578;53.178;5.846;2022-09-17T07:34:18;9.70;99.90
54680;DHT22;40578;53.178;5.846;2022-09-17T07:36:44;9.80;99.90
54680;DHT22;40578;53.178;5.846;2022-09-17T07:39:10;10.00;99.90
54680;DHT22;40578;53.178;5.846;2022-09-17T07:41:39;9.80;99.90
54680;DHT22;40578;53.178;5.846;2022-09-17T07:44:05;9.80;99.90
54680;DHT22;40578;53.178;5.846;2022-09-17T07:46:37;9.70;99.90
54680;DHT22;40578;53.178;5.846;2022-09-17T07:49:03;9.80;99.90
54680;DHT22;40578;53.178;5.846;2022-09-17T07:51:30;9.80;99.90
54680;DHT22;40578;53.178;5.846;2022-09-17T07:53:58;9.80;99.90
54680;DHT22;40578;53.178;5.846;2022-09-17T07:56:26;10.00;99.90
54680;DHT22;40578;53.178;5.846;2022-09-17T07:58:52;10.10;99.90
54680;DHT22;40578;53.178;5.846;2022-09-17T08:01:18;10.40;99.90
54680;DHT22;40578;53.178;5.846;2022-09-17T08:03:51;10.40;99.90
54680;DHT22;40578;53.178;5.846;2022-09-17T08:06:20;10.50;99.90
54680;DHT22;40578;53.178;5.846;2022-09-17T08:08:46;10.40;99.90
54680;DHT22;40578;53.178;5.846;2022-09-17T08:11:17;10.40;99.90
54680;DHT22;40578;53.178;5.846;2022-09-17T08:13:51;10.50;99.90
54680;DHT22;40578;53.178;5.846;2022-09-17T08:16:17;10.50;99.90
54680;DHT22;40578;53.178;5.846;2022-09-17T08:18:44;10.40;99.90
54680;DHT22;40578;53.178;5.846;2022-09-17T08:21:12;10.40;99.90
54680;DHT22;40578;53.178;5.846;2022-09-17T08:23:39;10.60;99.90
54680;DHT22;40578;53.178;5.846;2022-09-17T08:26:06;10.60;99.90
54680;DHT22;40578;53.178;5.846;2022-09-17T08:28:35;10.80;99.90
54680;DHT22;40578;53.178;5.846;2022-09-17T08:31:08;11.00;99.90
54680;DHT22;40578;53.178;5.846;2022-09-17T08:33:38;11.10;99.90
54680;DHT22;40578;53.178;5.846;2022-09-17T08:36:09;10.80;99.90
54680;DHT22;40578;53.178;5.846;2022-09-17T08:38:36;10.80;99.90
54680;DHT22;40578;53.178;5.846;2022-09-17T08:41:06;10.80;99.90
54680;DHT22;40578;53.178;5.846;2022-09-17T08:43:45;10.70;99.90
54680;DHT22;40578;53.178;5.846;2022-09-17T08:46:13;10.70;99.90
54680;DHT22;40578;53.178;5.846;2022-09-17T08:48:48;10.90;99.90
54680;DHT22;40578;53.178;5.846;2022-09-17T08:56:42;11.10;99.90
54680;DHT22;40578;53.178;5.846;2022-09-17T08:59:36;11.20;99.90
54680;DHT22;40578;53.178;5.846;2022-09-17T09:05:35;11.20;99.90
54680;DHT22;40578;53.178;5.846;2022-09-17T09:08:03;11.10;99.90
54680;DHT22;40578;53.178;5.846;2022-09-17T09:10:40;11.10;1.00
54680;DHT22;40578;53.178;5.846;2022-09-17T09:13:10;11.20;1.00
54680;DHT22;40578;53.178;5.846;2022-09-17T09:15:43;11.30;1.00
54680;DHT22;40578;53.178;5.846;2022-09-17T09:18:21;11.40;1.00
54680;DHT22;40578;53.178;5.846;2022-09-17T09:20:51;11.50;99.90
54680;DHT22;40578;53.178;5.846;2022-09-17T09:26:18;11.70;99.90
54680;DHT22;40578;53.178;5.846;2022-09-17T09:29:39;12.60;99.90
54680;DHT22;40578;53.178;5.846;2022-09-17T09:34:13;11.70;99.90
54680;DHT22;40578;53.178;5.846;2022-09-17T09:36:40;11.80;1.00
54680;DHT22;40578;53.178;5.846;2022-09-17T09:39:09;11.90;99.90
54680;DHT22;40578;53.178;5.846;2022-09-17T09:42:05;11.90;1.00
54680;DHT22;40578;53.178;5.846;2022-09-17T09:44:35;11.90;99.90
54680;DHT22;40578;53.178;5.846;2022-09-17T09:50:16;11.50;99.90
54680;DHT22;40578;53.178;5.846;2022-09-17T09:55:53;11.40;99.90
54680;DHT22;40578;53.178;5.846;2022-09-17T10:01:00;11.70;99.90
54680;DHT22;40578;53.178;5.846;2022-09-17T10:03:28;11.70;99.90
54680;DHT22;40578;53.178;5.846;2022-09-17T10:06:03;11.60;99.90
54680;DHT22;40578;53.178;5.846;2022-09-17T10:08:35;11.70;99.90
54680;DHT22;40578;53.178;5.846;2022-09-17T10:11:04;11.90;99.90
54680;DHT22;40578;53.178;5.846;2022-09-17T10:13:33;12.10;99.90
54680;DHT22;40578;53.178;5.846;2022-09-17T10:18:41;12.10;84.20
54680;DHT22;40578;53.178;5.846;2022-09-17T10:21:21;12.10;99.90
54680;DHT22;40578;53.178;5.846;2022-09-17T10:23:48;12.10;99.90
54680;DHT22;40578;53.178;5.846;2022-09-17T10:26:26;12.10;1.00
54680;DHT22;40578;53.178;5.846;2022-09-17T10:29:05;12.30;99.90
54680;DHT22;40578;53.178;5.846;2022-09-17T10:31:51;12.30;1.00
54680;DHT22;40578;53.178;5.846;2022-09-17T10:34:27;12.50;1.00
54680;DHT22;40578;53.178;5.846;2022-09-17T10:36:54;12.50;99.90
54680;DHT22;40578;53.178;5.846;2022-09-17T10:39:37;12.50;99.90
54680;DHT22;40578;53.178;5.846;2022-09-17T10:42:16;12.30;99.90
54680;DHT22;40578;53.178;5.846;2022-09-17T10:44:54;12.10;99.90
54680;DHT22;40578;53.178;5.846;2022-09-17T10:47:32;11.80;99.90
54680;DHT22;40578;53.178;5.846;2022-09-17T10:50:14;11.70;1.00
54680;DHT22;40578;53.178;5.846;2022-09-17T10:52:49;11.70;99.90
54680;DHT22;40578;53.178;5.846;2022-09-17T11:09:44;11.90;99.90
54680;DHT22;40578;53.178;5.846;2022-09-17T11:17:52;12.10;95.80
54680;DHT22;40578;53.178;5.846;2022-09-17T11:31:36;11.20;1.00
54680;DHT22;40578;53.178;5.846;2022-09-17T11:34:26;11.20;99.90
54680;DHT22;40578;53.178;5.846;2022-09-17T11:39:52;11.30;1.00
54680;DHT22;40578;53.178;5.846;2022-09-17T11:42:43;12.00;99.90
54680;DHT22;40578;53.178;5.846;2022-09-17T11:45:37;12.10;99.90
54680;DHT22;40578;53.178;5.846;2022-09-17T11:48:12;12.40;99.90
54680;DHT22;40578;53.178;5.846;2022-09-17T11:50:52;12.80;99.90
54680;DHT22;40578;53.178;5.846;2022-09-17T11:56:18;12.90;1.00
54680;DHT22;40578;53.178;5.846;2022-09-17T12:01:40;13.30;1.00
54680;DHT22;40578;53.178;5.846;2022-09-17T12:10:02;13.60;37.60
54680;DHT22;40578;53.178;5.846;2022-09-17T12:12:37;13.70;25.10
54680;DHT22;40578;53.178;5.846;2022-09-17T12:15:12;13.70;99.90
54680;DHT22;40578;53.178;5.846;2022-09-17T12:17:45;13.90;99.90
54680;DHT22;40578;53.178;5.846;2022-09-17T12:20:35;14.00;1.00
54680;DHT22;40578;53.178;5.846;2022-09-17T12:23:08;14.00;1.00
54680;DHT22;40578;53.178;5.846;2022-09-17T12:42:56;13.70;1.00
54680;DHT22;40578;53.178;5.846;2022-09-17T12:48:15;13.60;98.40
54680;DHT22;40578;53.178;5.846;2022-09-17T12:50:49;13.70;99.90
54680;DHT22;40578;53.178;5.846;2022-09-17T12:53:33;13.60;99.90
54680;DHT22;40578;53.178;5.846;2022-09-17T12:56:25;13.50;99.90
54680;DHT22;40578;53.178;5.846;2022-09-17T12:59:03;13.50;1.00
54680;DHT22;40578;53.178;5.846;2022-09-17T13:01:51;13.50;99.90
54680;DHT22;40578;53.178;5.846;2022-09-17T13:10:27;13.70;99.90
54680;DHT22;40578;53.178;5.846;2022-09-17T13:18:22;14.10;1.00
54680;DHT22;40578;53.178;5.846;2022-09-17T13:21:02;13.70;99.90
54680;DHT22;40578;53.178;5.846;2022-09-17T13:23:33;13.70;1.00
54680;DHT22;40578;53.178;5.846;2022-09-17T13:26:00;12.80;99.90
54680;DHT22;40578;53.178;5.846;2022-09-17T13:28:41;12.60;1.00
54680;DHT22;40578;53.178;5.846;2022-09-17T13:31:08;12.50;1.00
54680;DHT22;40578;53.178;5.846;2022-09-17T13:33:55;12.30;1.00
54680;DHT22;40578;53.178;5.846;2022-09-17T13:45:09;12.40;92.40
54680;DHT22;40578;53.178;5.846;2022-09-17T13:50:35;11.60;99.90
54680;DHT22;40578;53.178;5.846;2022-09-17T13:55:55;11.10;1.00
54680;DHT22;40578;53.178;5.846;2022-09-17T13:58:32;11.10;99.90
54680;DHT22;40578;53.178;5.846;2022-09-17T14:08:50;11.20;99.90
54680;DHT22;40578;53.178;5.846;2022-09-17T14:13:57;11.50;99.90
54680;DHT22;40578;53.178;5.846;2022-09-17T14:16:44;11.70;99.90
54680;DHT22;40578;53.178;5.846;2022-09-17T14:37:44;12.90;99.90
54680;DHT22;40578;53.178;5.846;2022-09-17T14:40:16;13.00;11.40
54680;DHT22;40578;53.178;5.846;2022-09-17T14:42:43;13.10;22.20
54680;DHT22;40578;53.178;5.846;2022-09-17T14:45:20;13.20;1.00
54680;DHT22;40578;53.178;5.846;2022-09-17T14:47:47;13.20;1.00
54680;DHT22;40578;53.178;5.846;2022-09-17T14:50:19;13.20;99.90
54680;DHT22;40578;53.178;5.846;2022-09-17T14:52:49;13.30;1.00
54680;DHT22;40578;53.178;5.846;2022-09-17T14:57:56;13.40;99.90
54680;DHT22;40578;53.178;5.846;2022-09-17T15:00:31;13.50;99.90
54680;DHT22;40578;53.178;5.846;2022-09-17T15:02:58;13.50;99.90
54680;DHT22;40578;53.178;5.846;2022-09-17T15:05:46;13.60;99.90
54680;DHT22;40578;53.178;5.846;2022-09-17T15:08:17;13.70;99.90
54680;DHT22;40578;53.178;5.846;2022-09-17T15:13:31;13.40;99.90
54680;DHT22;40578;53.178;5.846;2022-09-17T15:16:19;13.40;99.90
54680;DHT22;40578;53.178;5.846;2022-09-17T15:18:52;13.40;1.00
54680;DHT22;40578;53.178;5.846;2022-09-17T15:23:57;13.60;99.90
54680;DHT22;40578;53.178;5.846;2022-09-17T15:26:29;13.80;99.90
54680;DHT22;40578;53.178;5.846;2022-09-17T15:28:56;13.90;99.90
54680;DHT22;40578;53.178;5.846;2022-09-17T15:31:27;13.90;99.90
54680;DHT22;40578;53.178;5.846;2022-09-17T15:33:54;14.10;99.90
54680;DHT22;40578;53.178;5.846;2022-09-17T15:36:24;14.10;83.10
54680;DHT22;40578;53.178;5.846;2022-09-17T15:38:52;14.00;1.00
54680;DHT22;40578;53.178;5.846;2022-09-17T15:41:54;14.10;99.90
54680;DHT22;40578;53.178;5.846;2022-09-17T15:44:23;13.80;76.20
54680;DHT22;40578;53.178;5.846;2022-09-17T15:46:49;13.80;99.90
54680;DHT22;40578;53.178;5.846;2022-09-17T15:49:33;13.60;99.90
54680;DHT22;40578;53.178;5.846;2022-09-17T15:54:49;13.90;1.00
54680;DHT22;40578;53.178;5.846;2022-09-17T15:57:15;13.80;99.90
54680;DHT22;40578;53.178;5.846;2022-09-17T15:59:42;13.80;99.90
54680;DHT22;40578;53.178;5.846;2022-09-17T16:02:26;13.90;99.90
54680;DHT22;40578;53.178;5.846;2022-09-17T16:07:39;13.90;1.00
54680;DHT22;40578;53.178;5.846;2022-09-17T16:10:05;13.80;1.00
54680;DHT22;40578;53.178;5.846;2022-09-17T16:12:40;13.80;27.30
54680;DHT22;40578;53.178;5.846;2022-09-17T16:15:07;13.70;1.00
54680;DHT22;40578;53.178;5.846;2022-09-17T16:17:42;13.60;1.00
54680;DHT22;40578;53.178;5.846;2022-09-17T16:22:41;13.50;19.90
54680;DHT22;40578;53.178;5.846;2022-09-17T16:25:07;13.40;99.90
54680;DHT22;40578;53.178;5.846;2022-09-17T16:27:56;13.40;99.90
54680;DHT22;40578;53.178;5.846;2022-09-17T16:30:23;13.30;99.90
54680;DHT22;40578;53.178;5.846;2022-09-17T16:32:49;13.40;1.00
54680;DHT22;40578;53.178;5.846;2022-09-17T16:35:17;13.40;1.00
54680;DHT22;40578;53.178;5.846;2022-09-17T16:37:46;13.20;1.00
54680;DHT22;40578;53.178;5.846;2022-09-17T16:40:13;12.90;1.00
54680;DHT22;40578;53.178;5.846;2022-09-17T16:42:39;12.60;1.00
54680;DHT22;40578;53.178;5.846;2022-09-17T16:45:05;11.90;99.90
54680;DHT22;40578;53.178;5.846;2022-09-17T16:47:39;11.30;61.60
54680;DHT22;40578;53.178;5.846;2022-09-17T16:50:14;11.00;99.90
54680;DHT22;40578;53.178;5.846;2022-09-17T16:52:39;10.90;99.90
54680;DHT22;40578;53.178;5.846;2022-09-17T16:55:06;10.80;99.90
54680;DHT22;40578;53.178;5.846;2022-09-17T16:57:33;10.80;99.90
54680;DHT22;40578;53.178;5.846;2022-09-17T17:00:04;10.80;99.90
54680;DHT22;40578;53.178;5.846;2022-09-17T17:02:30;10.80;99.90
54680;DHT22;40578;53.178;5.846;2022-09-17T17:04:56;10.80;99.90
54680;DHT22;40578;53.178;5.846;2022-09-17T17:07:22;10.80;99.90
54680;DHT22;40578;53.178;5.846;2022-09-17T17:09:47;10.70;99.90
54680;DHT22;40578;53.178;5.846;2022-09-17T17:12:13;10.70;99.90
54680;DHT22;40578;53.178;5.846;2022-09-17T17:14:39;10.70;99.90
54680;DHT22;40578;53.178;5.846;2022-09-17T17:17:04;10.70;99.90
54680;DHT22;40578;53.178;5.846;2022-09-17T17:19:30;10.80;99.90
54680;DHT22;40578;53.178;5.846;2022-09-17T17:21:56;10.70;99.90
54680;DHT22;40578;53.178;5.846;2022-09-17T17:24:21;10.60;99.90
54680;DHT22;40578;53.178;5.846;2022-09-17T17:26:47;10.70;99.90
54680;DHT22;40578;53.178;5.846;2022-09-17T17:29:13;10.70;99.90
54680;DHT22;40578;53.178;5.846;2022-09-17T17:31:39;10.70;99.90
54680;DHT22;40578;53.178;5.846;2022-09-17T17:34:05;10.60;99.90
54680;DHT22;40578;53.178;5.846;2022-09-17T17:36:31;10.70;99.90
54680;DHT22;40578;53.178;5.846;2022-09-17T17:38:58;10.70;99.90
54680;DHT22;40578;53.178;5.846;2022-09-17T17:41:24;10.70;99.90
54680;DHT22;40578;53.178;5.846;2022-09-17T17:43:52;10.80;99.90
54680;DHT22;40578;53.178;5.846;2022-09-17T17:46:18;10.80;99.90
54680;DHT22;40578;53.178;5.846;2022-09-17T17:48:44;10.90;99.90
54680;DHT22;40578;53.178;5.846;2022-09-17T17:51:10;10.90;99.90
54680;DHT22;40578;53.178;5.846;2022-09-17T17:53:36;11.10;99.90
54680;DHT22;40578;53.178;5.846;2022-09-17T17:56:06;10.90;99.90
54680;DHT22;40578;53.178;5.846;2022-09-17T17:58:35;10.90;99.90
54680;DHT22;40578;53.178;5.846;2022-09-17T18:01:16;10.90;99.90
54680;DHT22;40578;53.178;5.846;2022-09-17T18:03:42;10.80;99.90
54680;DHT22;40578;53.178;5.846;2022-09-17T18:06:08;10.80;99.90
54680;DHT22;40578;53.178;5.846;2022-09-17T18:08:36;10.70;99.90
54680;DHT22;40578;53.178;5.846;2022-09-17T18:11:03;10.70;99.90
54680;DHT22;40578;53.178;5.846;2022-09-17T18:13:29;10.60;99.90
54680;DHT22;40578;53.178;5.846;2022-09-17T18:15:57;10.70;99.90
54680;DHT22;40578;53.178;5.846;2022-09-17T18:18:24;10.50;99.90
54680;DHT22;40578;53.178;5.846;2022-09-17T18:20:51;10.50;99.90
54680;DHT22;40578;53.178;5.846;2022-09-17T18:23:19;10.60;99.90
54680;DHT22;40578;53.178;5.846;2022-09-17T18:25:55;10.50;99.90
54680;DHT22;40578;53.178;5.846;2022-09-17T18:28:22;10.50;99.90
54680;DHT22;40578;53.178;5.846;2022-09-17T18:30:48;10.50;99.90
54680;DHT22;40578;53.178;5.846;2022-09-17T18:33:23;10.60;99.90
54680;DHT22;40578;53.178;5.846;2022-09-17T18:35:50;10.40;99.90
54680;DHT22;40578;53.178;5.846;2022-09-17T18:38:17;11.20;99.90
54680;DHT22;40578;53.178;5.846;2022-09-17T18:40:43;10.40;99.90
54680;DHT22;40578;53.178;5.846;2022-09-17T18:43:09;10.40;99.90
54680;DHT22;40578;53.178;5.846;2022-09-17T18:45:35;10.40;99.90
54680;DHT22;40578;53.178;5.846;2022-09-17T18:48:03;10.40;99.90
54680;DHT22;40578;53.178;5.846;2022-09-17T18:50:29;10.50;99.90
54680;DHT22;40578;53.178;5.846;2022-09-17T18:52:55;10.40;99.90
54680;DHT22;40578;53.178;5.846;2022-09-17T18:55:20;10.50;99.90
54680;DHT22;40578;53.178;5.846;2022-09-17T18:57:50;10.40;99.90
54680;DHT22;40578;53.178;5.846;2022-09-17T19:00:19;10.50;99.90
54680;DHT22;40578;53.178;5.846;2022-09-17T19:02:47;10.40;99.90
54680;DHT22;40578;53.178;5.846;2022-09-17T19:05:13;10.40;99.90
54680;DHT22;40578;53.178;5.846;2022-09-17T19:07:43;10.40;99.90
54680;DHT22;40578;53.178;5.846;2022-09-17T19:10:09;10.50;99.90